Time;durP1;ratioP1;P1;durP2;ratioP2;P2;SDS_P1;SDS_P2;PMS_P1;PMS_P2;Temp;Humidity;BMP_temperature;BMP_pressure;BME280_temperature;BME280_humidity;BME280_pressure;Samples;Min_cycle;Max_cycle;Signal;HPM_P1;HPM_P2
2023/05/24 00:01:26;;;;;;;3.93;2.60;;;21.30;53.20;21.80;101499.00;;;;5009849;28;20184;-50
2023/05/24 00:03:52;;;;;;;3.50;2.37;;;21.30;53.10;21.80;101494.00;;;;5009749;28;20214;-51
2023/05/24 00:06:19;;;;;;;3.37;2.50;;;21.30;53.10;21.80;101503.00;;;;5009831;28;20250;-50
2023/05/24 00:08:45;;;;;;;3.27;2.37;;;21.20;53.20;21.70;101512.00;;;;5009584;28;20198;-51
2023/05/24 00:11:11;;;;;;;3.17;2.37;;;21.20;53.00;21.70;101508.00;;;;5009671;28;20252;-51
2023/05/24 00:13:37;;;;;;;3.20;2.27;;;21.20;53.20;21.70;101503.00;;;;5009317;28;20803;-51
2023/05/24 00:16:03;;;;;;;4.03;2.40;;;21.20;53.10;21.70;101506.00;;;;5009391;28;20217;-50
2023/05/24 00:18:30;;;;;;;2.80;2.30;;;21.20;53.20;21.70;101508.00;;;;5009271;28;20819;-50
2023/05/24 00:20:57;;;;;;;3.93;2.43;;;21.20;53.10;21.60;101510.00;;;;5009489;28;20266;-50
2023/05/24 00:23:24;;;;;;;2.93;2.30;;;21.10;53.00;21.60;101507.00;;;;5009323;28;20685;-50
2023/05/24 00:25:53;;;;;;;2.47;2.20;;;21.10;52.90;21.60;101503.00;;;;5009262;28;20504;-50
2023/05/24 00:28:20;;;;;;;3.17;2.40;;;21.10;53.10;21.60;101506.00;;;;5009334;28;20195;-50
2023/05/24 00:30:46;;;;;;;3.07;2.40;;;21.10;53.00;21.50;101508.00;;;;5009592;28;20590;-51
2023/05/24 00:33:12;;;;;;;3.13;2.40;;;21.00;52.90;21.50;101506.00;;;;5009695;28;20190;-50
2023/05/24 00:35:37;;;;;;;3.40;2.60;;;21.00;52.80;21.50;101500.00;;;;5009568;28;20176;-50
2023/05/24 00:38:04;;;;;;;3.53;2.40;;;21.00;52.70;21.50;101508.00;;;;5009218;28;20305;-50
2023/05/24 00:40:30;;;;;;;3.23;2.20;;;21.00;52.80;21.50;101506.00;;;;5009202;28;20290;-50
2023/05/24 00:42:56;;;;;;;3.40;2.50;;;21.00;52.90;21.40;101504.00;;;;5009141;28;20654;-52
2023/05/24 00:45:21;;;;;;;2.83;2.23;;;20.90;52.80;21.40;101517.00;;;;5009122;28;20180;-50
2023/05/24 00:47:47;;;;;;;3.57;2.47;;;20.90;52.80;21.40;101497.00;;;;5008970;28;20207;-50
2023/05/24 00:50:15;;;;;;;6.23;2.40;;;20.90;52.80;21.40;101499.00;;;;5007686;28;20203;-51
2023/05/24 00:52:41;;;;;;;3.67;2.60;;;20.90;52.90;21.30;101502.00;;;;5009184;28;20558;-50
2023/05/24 00:55:07;;;;;;;3.80;2.23;;;20.90;53.00;21.30;101493.00;;;;5006949;28;20219;-50
2023/05/24 00:57:37;;;;;;;3.77;2.50;;;20.80;52.80;21.30;101499.00;;;;5007475;28;20223;-50
2023/05/24 01:00:04;;;;;;;3.23;2.40;;;20.80;52.80;21.30;101503.00;;;;5008523;28;20217;-50
2023/05/24 01:02:31;;;;;;;3.90;2.33;;;20.80;52.80;21.30;101508.00;;;;5007613;28;20264;-50
2023/05/24 01:04:58;;;;;;;2.80;2.30;;;20.80;52.80;21.20;101499.00;;;;5007343;28;20189;-50
2023/05/24 01:07:37;;;;;;;3.13;2.23;;;20.70;52.80;21.20;101492.00;;;;5007316;28;20205;-50
2023/05/24 01:10:20;;;;;;;4.20;2.30;;;20.70;52.80;21.20;101497.00;;;;4977292;28;20226;-49
2023/05/24 01:13:26;;;;;;;3.17;2.20;;;20.70;52.70;21.20;101495.00;;;;5007504;28;20199;-50
2023/05/24 01:16:04;;;;;;;4.27;2.20;;;20.70;52.60;21.10;101505.00;;;;5008339;28;20265;-50
2023/05/24 01:18:38;;;;;;;3.77;2.20;;;20.70;52.70;21.10;101495.00;;;;4976101;28;20283;-50
2023/05/24 01:21:47;;;;;;;2.80;2.30;;;20.70;52.70;21.10;101497.00;;;;4991271;28;20257;-50
2023/05/24 01:24:43;;;;;;;2.50;2.20;;;20.60;52.70;21.10;101493.00;;;;5008486;28;20592;-50
2023/05/24 01:27:11;;;;;;;3.40;2.47;;;20.60;52.90;21.00;101493.00;;;;5006955;28;20199;-50
2023/05/24 01:29:37;;;;;;;2.77;2.30;;;20.60;52.90;21.00;101486.00;;;;5007728;28;20188;-50
2023/05/24 01:32:03;;;;;;;2.80;2.20;;;20.50;52.80;21.00;101492.00;;;;4996362;28;20253;-50
2023/05/24 01:34:28;;;;;;;3.40;2.33;;;20.50;52.80;21.00;101493.00;;;;5009947;28;20195;-50
2023/05/24 01:36:54;;;;;;;3.80;2.50;;;20.50;52.80;21.00;101492.00;;;;5008658;28;20214;-50
2023/05/24 01:39:21;;;;;;;2.83;2.10;;;20.50;52.80;20.90;101490.00;;;;5008675;28;20224;-50
2023/05/24 01:42:08;;;;;;;3.97;2.50;;;20.50;52.80;20.90;101491.00;;;;4991046;28;20649;-51
2023/05/24 01:44:42;;;;;;;2.83;2.20;;;20.50;52.80;20.90;101487.00;;;;5009591;28;20176;-50
2023/05/24 01:47:23;;;;;;;3.43;2.20;;;20.40;52.70;20.90;101495.00;;;;5011676;28;20261;-50
2023/05/24 01:49:50;;;;;;;3.20;2.30;;;20.40;52.70;20.90;101491.00;;;;4991386;28;20203;-50
2023/05/24 01:52:18;;;;;;;3.23;2.23;;;20.40;52.70;20.80;101484.00;;;;5006890;28;20257;-50
2023/05/24 01:54:49;;;;;;;3.57;2.30;;;20.40;52.70;20.90;101490.00;;;;4990498;28;20183;-50
2023/05/24 01:57:14;;;;;;;3.80;2.40;;;20.40;52.80;20.80;101476.00;;;;5006910;28;20244;-50
2023/05/24 01:59:41;;;;;;;2.50;2.10;;;20.40;52.70;20.80;101470.00;;;;4974311;28;20236;-50
2023/05/24 02:02:08;;;;;;;3.23;2.10;;;20.40;52.70;20.80;101487.00;;;;4990462;28;20185;-50
2023/05/24 02:04:33;;;;;;;4.00;2.33;;;20.30;52.60;20.80;101476.00;;;;5007977;28;20557;-50
2023/05/24 02:06:59;;;;;;;3.57;2.40;;;20.30;52.60;20.80;101474.00;;;;5009693;28;20202;-50
2023/05/24 02:09:25;;;;;;;2.10;1.90;;;20.30;53.30;20.80;101485.00;;;;5012188;28;20179;-50
2023/05/24 02:11:50;;;;;;;2.50;2.03;;;20.30;52.60;20.70;101483.00;;;;5012122;28;20186;-50
2023/05/24 02:14:18;;;;;;;2.73;2.13;;;20.30;52.60;20.70;101478.00;;;;5012007;28;20208;-50
2023/05/24 02:16:45;;;;;;;3.30;2.20;;;20.30;52.60;20.70;101490.00;;;;5011949;28;20708;-50
2023/05/24 02:19:12;;;;;;;3.40;1.90;;;20.30;52.60;20.70;101484.00;;;;5012016;28;20211;-50
2023/05/24 02:21:37;;;;;;;3.10;2.20;;;20.20;52.60;20.70;101486.00;;;;5011790;28;20276;-50
2023/05/24 02:24:05;;;;;;;2.53;2.10;;;20.20;52.60;20.70;101488.00;;;;5011550;28;20263;-50
2023/05/24 02:26:31;;;;;;;3.97;2.43;;;20.20;52.60;20.60;101483.00;;;;5011861;28;20289;-49
2023/05/24 02:28:57;;;;;;;2.63;2.10;;;20.20;52.60;20.60;101480.00;;;;5011658;28;20207;-50
2023/05/24 02:31:24;;;;;;;3.00;2.10;;;20.20;52.60;20.60;101473.00;;;;5011827;28;20188;-50
2023/05/24 02:33:50;;;;;;;3.13;2.20;;;20.10;52.50;20.60;101474.00;;;;5011370;28;20612;-50
2023/05/24 02:36:16;;;;;;;4.13;2.33;;;20.10;52.50;20.60;101463.00;;;;5011669;28;20190;-50
2023/05/24 02:38:41;;;;;;;3.13;2.20;;;20.10;52.50;20.60;101468.00;;;;5011276;28;20219;-50
2023/05/24 02:41:08;;;;;;;2.50;2.00;;;20.10;52.50;20.50;101476.00;;;;5011660;28;20760;-50
2023/05/24 02:43:33;;;;;;;3.40;2.00;;;20.10;52.50;20.50;101467.00;;;;5011748;28;20177;-50
2023/05/24 02:45:59;;;;;;;3.13;2.10;;;20.10;52.50;20.50;101467.00;;;;5011261;28;20194;-50
2023/05/24 02:48:25;;;;;;;3.40;2.07;;;20.10;52.50;20.50;101464.00;;;;5011068;28;20203;-50
2023/05/24 02:50:50;;;;;;;3.57;2.17;;;20.00;52.40;20.50;101470.00;;;;5011511;28;20202;-50
2023/05/24 02:53:16;;;;;;;2.70;2.00;;;20.10;52.50;20.40;101459.00;;;;5011052;28;20192;-50
2023/05/24 02:55:42;;;;;;;2.67;1.90;;;20.00;52.40;20.40;101459.00;;;;5009846;28;20231;-48
2023/05/24 02:58:08;;;;;;;2.50;2.03;;;20.00;52.50;20.40;101460.00;;;;5010958;28;20213;-50
2023/05/24 03:00:34;;;;;;;3.43;2.20;;;20.00;52.50;20.40;101472.00;;;;5011084;28;20764;-50
2023/05/24 03:03:01;;;;;;;3.27;2.27;;;20.00;52.40;20.40;101471.00;;;;5010896;28;20375;-49
2023/05/24 03:05:27;;;;;;;4.07;2.37;;;20.00;52.50;20.30;101474.00;;;;5010832;28;20179;-49
2023/05/24 03:07:53;;;;;;;3.73;2.23;;;19.90;52.40;20.30;101470.00;;;;5010566;28;20618;-49
2023/05/24 03:10:19;;;;;;;2.67;2.20;;;19.90;52.40;20.30;101482.00;;;;5010801;28;20210;-49
2023/05/24 03:12:44;;;;;;;3.33;2.40;;;19.90;52.20;20.10;101475.00;;;;5010741;28;20191;-49
2023/05/24 03:15:10;;;;;;;3.47;2.07;;;19.90;52.30;20.30;101473.00;;;;5010705;28;20199;-49
2023/05/24 03:17:36;;;;;;;3.27;2.10;;;19.90;52.30;20.20;101470.00;;;;5010403;28;20226;-50
2023/05/24 03:20:04;;;;;;;2.90;2.20;;;19.90;52.40;20.20;101467.00;;;;5010673;28;20203;-49
2023/05/24 03:22:30;;;;;;;3.13;2.33;;;19.80;52.30;20.20;101461.00;;;;5010790;28;20176;-49
2023/05/24 03:24:57;;;;;;;3.37;2.13;;;19.80;52.30;20.20;101459.00;;;;5010406;28;20178;-49
2023/05/24 03:27:22;;;;;;;3.90;2.20;;;19.80;52.40;19.90;101460.00;;;;5011313;28;20210;-48
2023/05/24 03:29:48;;;;;;;3.37;2.30;;;19.90;53.30;20.20;101457.00;;;;5011762;28;20180;-50
2023/05/24 03:32:14;;;;;;;4.50;2.27;;;19.90;52.50;20.20;101463.00;;;;5016129;28;20548;-50
2023/05/24 03:34:39;;;;;;;4.23;2.43;;;19.90;52.40;20.20;101468.00;;;;5011430;28;20187;-49
2023/05/24 03:37:05;;;;;;;4.07;2.43;;;19.90;52.40;20.10;101460.00;;;;5010776;28;20211;-49
2023/05/24 03:39:31;;;;;;;5.67;2.30;;;19.80;52.30;20.10;101464.00;;;;5010953;28;20211;-49
2023/05/24 03:41:57;;;;;;;5.77;2.27;;;19.80;52.30;20.10;101467.00;;;;5001923;28;20188;-49
2023/05/24 03:44:22;;;;;;;5.37;2.40;;;19.80;52.30;20.10;101469.00;;;;5010283;28;20900;-50
2023/05/24 03:46:48;;;;;;;4.90;2.33;;;19.80;52.30;20.10;101465.00;;;;5015089;28;20585;-49
2023/05/24 03:49:14;;;;;;;5.00;2.33;;;19.80;52.40;20.00;101459.00;;;;5011459;28;20203;-49
2023/05/24 03:51:39;;;;;;;3.13;2.10;;;19.80;52.40;20.00;101472.00;;;;5011222;28;20569;-49
2023/05/24 03:54:05;;;;;;;4.47;2.50;;;19.70;52.30;20.00;101474.00;;;;5010490;28;20187;-49
2023/05/24 03:56:31;;;;;;;3.93;2.30;;;19.70;52.30;20.00;101480.00;;;;5010581;28;20198;-50
2023/05/24 03:58:59;;;;;;;2.93;2.20;;;19.70;52.30;19.90;101471.00;;;;5010659;28;20210;-50
2023/05/24 04:01:25;;;;;;;4.60;2.40;;;19.70;52.30;19.90;101494.00;;;;5010756;28;20258;-49
2023/05/24 04:03:54;;;;;;;3.67;2.17;;;19.70;52.30;19.90;101475.00;;;;4993083;28;20638;-49
2023/05/24 04:06:20;;;;;;;2.90;2.20;;;19.60;52.30;19.90;101484.00;;;;5010500;28;20187;-49
2023/05/24 04:08:46;;;;;;;3.07;2.20;;;19.60;52.20;19.90;101493.00;;;;5010778;28;20235;-50
2023/05/24 04:11:12;;;;;;;3.50;2.03;;;19.60;52.20;19.80;101490.00;;;;5010715;28;20222;-49
2023/05/24 04:13:38;;;;;;;3.90;2.13;;;19.60;52.20;19.80;101483.00;;;;5011000;28;20191;-49
2023/05/24 04:16:03;;;;;;;2.93;1.90;;;19.60;52.20;19.80;101488.00;;;;5010174;28;20187;-49
2023/05/24 04:18:29;;;;;;;2.63;2.30;;;19.50;52.10;19.80;101414.00;;;;5010153;28;20208;-49
2023/05/24 04:20:55;;;;;;;4.03;2.20;;;19.60;52.30;19.80;101493.00;;;;5009460;28;20199;-50
2023/05/24 04:23:21;;;;;;;4.27;2.30;;;19.60;52.30;19.80;101503.00;;;;4977070;28;20218;-50
2023/05/24 04:25:47;;;;;;;3.80;2.13;;;19.60;52.30;19.70;101501.00;;;;4961085;28;20180;-48
2023/05/24 04:28:14;;;;;;;4.23;2.30;;;19.60;52.20;19.70;101505.00;;;;5008727;28;20199;-50
2023/05/24 04:30:40;;;;;;;3.30;2.33;;;19.50;52.20;19.80;101498.00;;;;4999249;28;20222;-48
2023/05/24 04:33:07;;;;;;;3.87;2.43;;;19.60;52.30;19.70;101507.00;;;;4977340;28;20183;-48
2023/05/24 04:35:32;;;;;;;3.57;2.20;;;19.50;52.30;19.70;101497.00;;;;5008802;28;20262;-49
2023/05/24 04:37:58;;;;;;;3.83;2.20;;;19.50;52.20;19.70;101512.00;;;;4975540;28;20684;-49
2023/05/24 04:40:24;;;;;;;3.90;2.30;;;19.50;52.30;19.70;101507.00;;;;4992568;28;20269;-48
2023/05/24 04:42:50;;;;;;;5.63;2.23;;;19.50;52.40;19.70;101519.00;;;;5008936;28;20180;-49
2023/05/24 04:45:16;;;;;;;4.17;2.20;;;19.50;52.40;19.70;101505.00;;;;4972685;28;20208;-49
2023/05/24 04:47:42;;;;;;;4.23;2.10;;;19.40;52.40;19.70;101519.00;;;;5008506;28;20200;-49
2023/05/24 04:50:08;;;;;;;3.07;2.10;;;19.40;52.50;19.60;101514.00;;;;5009698;28;20199;-48
2023/05/24 04:52:35;;;;;;;3.67;2.10;;;19.40;52.50;19.60;101522.00;;;;5010278;28;20199;-50
2023/05/24 04:55:02;;;;;;;2.83;2.00;;;19.40;52.50;19.60;101514.00;;;;5009603;28;20654;-50
2023/05/24 04:57:28;;;;;;;3.27;2.17;;;19.40;52.50;19.60;101529.00;;;;5008429;28;20203;-50
2023/05/24 04:59:54;;;;;;;2.80;2.30;;;19.40;52.60;19.60;101520.00;;;;5009187;28;20720;-50
2023/05/24 05:02:21;;;;;;;3.93;2.20;;;19.40;52.50;19.50;101532.00;;;;5010373;28;20176;-50
2023/05/24 05:04:46;;;;;;;3.97;2.10;;;19.40;52.50;19.50;101528.00;;;;5009669;28;20211;-50
2023/05/24 05:07:12;;;;;;;4.67;2.17;;;19.40;52.50;19.50;101538.00;;;;5009632;28;20235;-50
2023/05/24 05:09:38;;;;;;;2.93;2.07;;;19.40;52.50;19.50;101547.00;;;;5009779;28;20274;-50
2023/05/24 05:12:04;;;;;;;2.40;1.93;;;19.30;52.50;19.50;101536.00;;;;5009870;28;20261;-50
2023/05/24 05:14:30;;;;;;;4.43;2.37;;;19.30;52.50;19.50;101544.00;;;;5009607;28;20202;-49
2023/05/24 05:16:55;;;;;;;3.07;2.00;;;19.30;52.50;19.40;101538.00;;;;5009590;28;20230;-50
2023/05/24 05:19:21;;;;;;;2.30;2.10;;;19.30;52.50;19.40;101547.00;;;;5009853;28;20206;-50
2023/05/24 05:21:47;;;;;;;4.67;2.40;;;19.30;52.50;19.40;101545.00;;;;5010072;28;20242;-50
2023/05/24 05:24:14;;;;;;;2.60;2.00;;;19.30;52.60;19.40;101544.00;;;;5000943;28;20180;-50
2023/05/24 05:26:40;;;;;;;2.40;2.00;;;19.30;52.50;19.40;101542.00;;;;5008219;28;20249;-50
2023/05/24 05:29:06;;;;;;;2.27;2.00;;;19.30;52.50;19.40;101546.00;;;;5008975;28;20182;-49
2023/05/24 05:31:32;;;;;;;2.50;2.17;;;19.20;52.50;19.40;101547.00;;;;5012706;28;20556;-50
2023/05/24 05:33:57;;;;;;;2.67;2.03;;;19.20;52.50;19.40;101535.00;;;;5013646;28;20642;-50
2023/05/24 05:36:23;;;;;;;2.07;1.87;;;19.20;52.60;19.40;101542.00;;;;5009290;28;20187;-50
2023/05/24 05:38:49;;;;;;;2.77;2.10;;;19.20;52.70;19.40;101550.00;;;;5008786;28;20199;-49
2023/05/24 05:41:14;;;;;;;3.50;2.03;;;19.20;52.70;19.40;101544.00;;;;5013289;28;20642;-50
2023/05/24 05:43:40;;;;;;;3.33;2.20;;;19.20;52.80;19.40;101545.00;;;;5014483;28;20258;-50
2023/05/24 05:46:06;;;;;;;2.73;2.20;;;19.20;52.80;19.40;101540.00;;;;5017924;28;20190;-50
2023/05/24 05:48:32;;;;;;;2.33;1.90;;;19.20;52.80;19.40;101540.00;;;;5017360;28;20199;-50
2023/05/24 05:51:03;;;;;;;2.73;2.20;;;19.20;52.80;19.40;101549.00;;;;5015818;28;20242;-50
2023/05/24 05:53:29;;;;;;;3.00;2.13;;;19.10;52.80;19.40;101536.00;;;;5016119;28;20764;-50
2023/05/24 05:55:55;;;;;;;2.10;1.90;;;19.10;53.40;19.40;101534.00;;;;5022395;28;20193;-50
2023/05/24 05:58:21;;;;;;;3.30;2.50;;;19.20;52.90;19.40;101531.00;;;;5015191;28;20238;-50
2023/05/24 06:00:46;;;;;;;2.40;2.10;;;19.10;52.80;19.40;101535.00;;;;5015596;28;20756;-50
2023/05/24 06:03:12;;;;;;;3.90;2.00;;;19.10;52.90;19.40;101540.00;;;;5015527;28;20195;-49
2023/05/24 06:05:38;;;;;;;2.87;2.30;;;19.10;52.90;19.40;101521.00;;;;5015288;28;20191;-49
2023/05/24 06:08:04;;;;;;;2.97;2.17;;;19.10;53.00;19.20;101529.00;;;;5017184;28;20227;-50
2023/05/24 06:10:29;;;;;;;3.00;2.20;;;19.00;52.90;19.40;101525.00;;;;5015503;28;20624;-49
2023/05/24 06:12:55;;;;;;;2.57;2.07;;;19.10;53.00;19.40;101524.00;;;;5015604;28;20184;-49
2023/05/24 06:15:21;;;;;;;2.37;1.97;;;19.10;53.00;19.40;101521.00;;;;5015323;28;20658;-50
2023/05/24 06:17:48;;;;;;;2.77;2.10;;;19.10;53.00;19.40;101457.00;;;;5014856;28;20207;-50
2023/05/24 06:20:15;;;;;;;2.80;2.00;;;19.10;53.00;19.40;101506.00;;;;5015609;28;20261;-49
2023/05/24 06:22:41;;;;;;;3.00;2.20;;;19.10;53.00;19.40;101509.00;;;;5015293;28;20249;-50
2023/05/24 06:25:07;;;;;;;3.57;2.17;;;19.10;53.00;19.40;101501.00;;;;5014688;28;20175;-49
2023/05/24 06:27:33;;;;;;;3.30;2.23;;;19.10;53.10;19.40;101507.00;;;;5013856;28;20199;-50
2023/05/24 06:29:59;;;;;;;3.07;2.07;;;19.10;53.10;19.40;101521.00;;;;5015743;28;20183;-49
2023/05/24 06:32:24;;;;;;;3.10;2.17;;;19.10;53.10;19.40;101520.00;;;;5015246;28;20190;-49
2023/05/24 06:34:50;;;;;;;3.40;2.30;;;19.10;53.20;19.40;101523.00;;;;5015411;28;20175;-50
2023/05/24 06:37:16;;;;;;;3.33;2.50;;;19.10;53.20;19.40;101540.00;;;;5014977;28;20199;-50
2023/05/24 06:39:42;;;;;;;2.87;2.20;;;19.00;53.20;19.40;101521.00;;;;5015254;28;20548;-50
2023/05/24 06:42:07;;;;;;;2.60;2.20;;;19.00;53.20;19.40;101531.00;;;;5015568;28;20222;-49
2023/05/24 06:44:33;;;;;;;2.30;2.10;;;19.00;53.30;19.40;101538.00;;;;5015308;28;20645;-50
2023/05/24 06:47:00;;;;;;;2.73;2.20;;;19.00;53.20;19.40;101539.00;;;;5014901;28;20221;-50
2023/05/24 06:49:26;;;;;;;2.57;1.90;;;19.00;53.30;19.40;101537.00;;;;5015401;28;20195;-50
2023/05/24 06:51:52;;;;;;;2.57;2.27;;;19.00;53.30;19.40;101531.00;;;;5013799;28;20680;-50
2023/05/24 06:54:18;;;;;;;3.30;2.30;;;19.00;53.30;19.30;101529.00;;;;5011949;28;20680;-50
2023/05/24 06:56:43;;;;;;;2.33;2.07;;;19.00;53.30;19.40;101538.00;;;;5008912;28;20303;-49
2023/05/24 06:59:09;;;;;;;2.37;2.00;;;19.00;53.30;19.30;101534.00;;;;5011256;28;20366;-50
2023/05/24 07:01:38;;;;;;;2.70;2.17;;;19.00;53.30;19.30;101528.00;;;;5019000;28;20646;-50
2023/05/24 07:04:04;;;;;;;3.37;2.43;;;19.00;53.40;19.30;101523.00;;;;5022685;28;20203;-50
2023/05/24 07:06:32;;;;;;;3.00;2.20;;;19.00;53.40;19.30;101542.00;;;;5019312;28;20187;-49
2023/05/24 07:08:58;;;;;;;2.70;2.10;;;19.00;53.50;19.30;101540.00;;;;5018405;28;20217;-50
2023/05/24 07:11:23;;;;;;;3.70;2.30;;;19.00;53.50;19.30;101545.00;;;;5012729;28;20183;-50
2023/05/24 07:13:49;;;;;;;3.07;2.10;;;19.00;53.60;19.30;101551.00;;;;5012003;28;20214;-49
2023/05/24 07:16:15;;;;;;;4.17;2.50;;;19.00;53.70;19.30;101551.00;;;;5011911;28;20676;-50
2023/05/24 07:18:41;;;;;;;2.97;2.50;;;19.00;53.70;19.30;101549.00;;;;5011671;28;20218;-50
2023/05/24 07:21:07;;;;;;;3.07;2.27;;;18.90;53.60;19.30;101546.00;;;;5012082;28;20191;-49
2023/05/24 07:23:33;;;;;;;3.40;2.30;;;19.00;53.70;19.30;101564.00;;;;5010873;28;20186;-49
2023/05/24 07:25:59;;;;;;;3.07;2.40;;;18.90;53.60;19.30;101545.00;;;;5011255;28;20191;-50
2023/05/24 07:28:24;;;;;;;2.77;2.23;;;18.90;53.70;19.30;101550.00;;;;5009443;28;20200;-50
2023/05/24 07:30:50;;;;;;;2.90;2.27;;;18.90;53.70;19.30;101543.00;;;;5010967;28;20642;-50
2023/05/24 07:33:16;;;;;;;3.43;2.40;;;18.90;53.70;19.30;101551.00;;;;5014182;28;20214;-50
2023/05/24 07:35:42;;;;;;;4.40;2.33;;;18.90;53.70;19.30;101542.00;;;;5011671;28;20662;-50
2023/05/24 07:38:08;;;;;;;3.60;2.60;;;18.90;53.70;19.30;101541.00;;;;5012002;28;20255;-50
2023/05/24 07:40:34;;;;;;;3.90;2.40;;;18.90;53.70;19.30;101544.00;;;;5012026;28;20217;-50
2023/05/24 07:42:59;;;;;;;3.17;2.40;;;18.90;53.70;19.30;101550.00;;;;5012195;28;20171;-48
2023/05/24 07:45:25;;;;;;;4.73;2.73;;;18.90;53.70;19.30;101548.00;;;;5012321;28;20187;-50
2023/05/24 07:47:51;;;;;;;3.57;2.60;;;18.90;53.70;19.30;101543.00;;;;5015911;28;20203;-50
2023/05/24 07:50:17;;;;;;;3.63;2.40;;;18.90;53.80;19.30;101543.00;;;;5011592;28;20261;-50
2023/05/24 07:52:44;;;;;;;3.73;2.80;;;18.90;53.70;19.30;101544.00;;;;5011660;28;20198;-49
2023/05/24 07:55:10;;;;;;;4.00;2.70;;;18.80;53.70;19.30;101550.00;;;;5011520;28;20261;-50
2023/05/24 07:57:36;;;;;;;3.63;2.60;;;18.80;53.70;19.30;101547.00;;;;5011885;28;20210;-49
2023/05/24 08:00:09;;;;;;;4.03;2.57;;;18.80;53.70;19.30;101533.00;;;;5011152;28;20199;-50
2023/05/24 08:02:34;;;;;;;3.23;2.60;;;18.80;53.80;19.30;101544.00;;;;5010851;28;20182;-49
2023/05/24 08:05:00;;;;;;;3.60;2.70;;;18.80;53.80;19.20;101550.00;;;;5010507;28;20242;-50
2023/05/24 08:07:26;;;;;;;4.10;2.80;;;18.80;53.90;19.20;101556.00;;;;5010477;28;20194;-49
2023/05/24 08:09:52;;;;;;;3.73;2.60;;;18.80;54.00;19.20;101563.00;;;;5011720;28;20211;-50
2023/05/24 08:12:17;;;;;;;4.97;3.00;;;18.80;54.00;19.20;101550.00;;;;5011227;28;20187;-49
2023/05/24 08:14:43;;;;;;;3.67;2.50;;;18.80;54.00;19.20;101547.00;;;;5010958;28;20194;-50
2023/05/24 08:17:09;;;;;;;3.50;2.60;;;18.80;54.00;19.30;101557.00;;;;5011768;28;20226;-49
2023/05/24 08:19:35;;;;;;;4.93;2.97;;;18.80;54.00;19.20;101561.00;;;;5011063;28;20866;-49
2023/05/24 08:22:04;;;;;;;4.67;2.97;;;18.80;54.00;19.20;101563.00;;;;5010518;28;20669;-49
2023/05/24 08:24:31;;;;;;;3.60;2.97;;;18.80;54.00;19.20;101558.00;;;;5015743;28;20669;-49
2023/05/24 08:26:56;;;;;;;4.03;2.80;;;18.80;53.90;19.30;101560.00;;;;5010629;28;20179;-49
2023/05/24 08:29:23;;;;;;;6.03;2.80;;;18.80;53.90;19.20;101559.00;;;;5012916;28;20194;-51
2023/05/24 08:31:48;;;;;;;4.87;2.90;;;18.70;55.00;19.20;101553.00;;;;5014385;28;20184;-50
2023/05/24 08:34:14;;;;;;;4.83;2.93;;;18.70;54.20;19.20;101566.00;;;;5014542;28;20206;-50
2023/05/24 08:36:42;;;;;;;5.93;3.10;;;18.70;55.00;19.20;101564.00;;;;5013300;28;20190;-50
2023/05/24 08:39:08;;;;;;;5.30;3.00;;;18.80;54.80;19.20;101561.00;;;;5011835;28;20297;-50
2023/05/24 08:41:36;;;;;;;4.70;2.90;;;18.70;54.70;19.30;101554.00;;;;5010758;28;20326;-49
2023/05/24 08:44:04;;;;;;;5.03;3.17;;;18.70;54.60;19.30;101556.00;;;;5011237;28;20237;-50
2023/05/24 08:46:30;;;;;;;4.47;2.80;;;18.70;54.70;19.30;101551.00;;;;5009541;28;20175;-51
2023/05/24 08:48:55;;;;;;;3.50;2.90;;;18.70;54.70;19.30;101551.00;;;;5010912;28;20301;-48
2023/05/24 08:51:21;;;;;;;5.60;3.23;;;18.70;54.80;19.30;101525.00;;;;4993015;28;20223;-49
2023/05/24 08:53:48;;;;;;;4.83;2.60;;;18.70;54.90;19.30;101544.00;;;;5009869;28;20216;-50
2023/05/24 08:56:16;;;;;;;3.67;2.70;;;18.70;55.00;19.30;101538.00;;;;4993596;28;20180;-49
2023/05/24 08:58:42;;;;;;;5.37;2.60;;;18.70;55.00;19.10;101464.00;;;;5010349;28;20207;-50
2023/05/24 09:01:10;;;;;;;3.90;2.80;;;18.70;55.00;19.30;101528.00;;;;5010891;28;20257;-49
2023/05/24 09:03:35;;;;;;;5.57;2.90;;;18.70;55.00;19.30;101526.00;;;;5009098;28;20310;-48
2023/05/24 09:06:02;;;;;;;4.67;3.00;;;18.70;55.00;19.30;101527.00;;;;5010779;28;20273;-49
2023/05/24 09:08:28;;;;;;;4.63;2.80;;;18.70;55.10;19.30;101535.00;;;;5011273;28;20195;-49
2023/05/24 09:10:54;;;;;;;4.17;2.80;;;18.70;55.10;19.30;101545.00;;;;5010420;28;20563;-49
2023/05/24 09:13:20;;;;;;;5.00;2.73;;;18.70;55.80;19.30;101542.00;;;;5009987;28;20237;-49
2023/05/24 09:15:46;;;;;;;3.90;2.80;;;18.70;55.10;19.30;101543.00;;;;4977486;28;20641;-48
2023/05/24 09:18:11;;;;;;;4.17;2.67;;;18.70;55.20;19.30;101544.00;;;;5009929;28;20211;-51
2023/05/24 09:20:37;;;;;;;4.87;3.10;;;18.70;55.30;19.30;101544.00;;;;5011761;28;20211;-49
2023/05/24 09:23:03;;;;;;;4.97;2.80;;;18.70;55.30;19.30;101535.00;;;;5012511;28;20183;-49
2023/05/24 09:25:29;;;;;;;4.23;2.90;;;18.70;55.40;19.30;101535.00;;;;4978005;28;20190;-50
2023/05/24 09:27:55;;;;;;;4.40;2.80;;;18.70;55.50;19.30;101528.00;;;;5010041;28;20248;-49
2023/05/24 09:30:21;;;;;;;3.83;2.90;;;18.70;55.50;19.30;101535.00;;;;5010566;28;20183;-49
2023/05/24 09:32:57;;;;;;;3.63;2.60;;;18.70;55.50;19.40;101530.00;;;;5011155;28;20291;-50
2023/05/24 09:35:23;;;;;;;3.40;2.60;;;18.70;55.70;19.30;101533.00;;;;5014453;28;20187;-49
2023/05/24 09:37:49;;;;;;;3.17;2.53;;;18.70;55.70;19.40;101528.00;;;;5012782;28;20294;-49
2023/05/24 09:40:21;;;;;;;5.03;2.73;;;18.70;55.70;19.40;101534.00;;;;5011326;28;20674;-49
2023/05/24 09:42:50;;;;;;;4.13;2.70;;;18.70;55.70;19.40;101538.00;;;;5011278;28;20187;-49
2023/05/24 09:45:16;;;;;;;5.57;3.07;;;18.70;55.70;19.40;101526.00;;;;5011592;28;20275;-51
2023/05/24 09:47:43;;;;;;;3.70;2.60;;;18.70;55.70;19.40;101534.00;;;;5012999;28;20423;-51
2023/05/24 09:50:13;;;;;;;3.20;2.50;;;18.70;56.30;19.40;101528.00;;;;5011254;28;20942;-50
2023/05/24 09:52:40;;;;;;;3.40;2.60;;;18.70;55.70;19.40;101524.00;;;;5011210;28;20244;-51
2023/05/24 09:55:20;;;;;;;3.80;2.30;;;18.70;55.80;19.40;101524.00;;;;5011926;28;20587;-51
2023/05/24 09:58:04;;;;;;;4.97;2.80;;;18.70;55.80;19.40;101524.00;;;;5019922;28;20205;-51
2023/05/24 10:00:35;;;;;;;4.40;2.70;;;18.70;56.00;19.40;101513.00;;;;5015432;28;20204;-50
2023/05/24 10:03:02;;;;;;;6.50;2.90;;;18.80;56.20;19.40;101510.00;;;;5016029;28;20195;-50
2023/05/24 10:05:28;;;;;;;7.53;2.63;;;18.80;56.20;19.40;101512.00;;;;5023451;28;20179;-50
2023/05/24 10:07:56;;;;;;;5.07;2.80;;;18.80;56.20;19.40;101515.00;;;;5017276;28;20220;-50
2023/05/24 10:10:22;;;;;;;5.97;2.90;;;18.80;56.30;19.40;101518.00;;;;5019522;28;20222;-50
2023/05/24 10:12:47;;;;;;;4.47;2.63;;;18.80;56.30;19.50;101512.00;;;;5010673;28;20202;-51
2023/05/24 10:15:13;;;;;;;4.93;2.70;;;18.80;56.40;19.50;101510.00;;;;5011884;28;20183;-49
2023/05/24 10:17:39;;;;;;;4.17;2.97;;;18.80;56.50;19.50;101515.00;;;;4995137;28;20203;-49
2023/05/24 10:20:06;;;;;;;5.77;2.60;;;18.90;56.60;19.50;101520.00;;;;4993652;28;20215;-49
2023/05/24 10:22:34;;;;;;;3.60;2.60;;;18.80;56.60;19.60;101513.00;;;;5011198;28;20183;-50
2023/05/24 10:25:00;;;;;;;3.97;2.80;;;18.80;56.60;19.60;101510.00;;;;5010824;28;20179;-50
2023/05/24 10:27:29;;;;;;;4.93;3.00;;;18.80;56.60;19.60;101515.00;;;;4996982;28;20199;-51
2023/05/24 10:30:25;;;;;;;4.93;2.43;;;18.90;56.70;19.60;101511.00;;;;4982647;28;20198;-50
2023/05/24 10:32:52;;;;;;;5.50;2.60;;;18.90;56.80;19.60;101522.00;;;;5016571;28;20329;-50
2023/05/24 10:35:19;;;;;;;7.77;2.80;;;18.90;56.80;19.60;101516.00;;;;4998481;28;20561;-50
2023/05/24 10:37:46;;;;;;;7.03;2.70;;;18.90;56.80;19.60;101510.00;;;;5000046;28;20206;-50
2023/05/24 10:40:24;;;;;;;3.00;2.50;;;18.90;56.80;19.70;101512.00;;;;5015178;28;20213;-49
2023/05/24 10:42:50;;;;;;;6.80;2.60;;;18.90;56.90;19.70;101511.00;;;;5017264;28;20183;-50
2023/05/24 10:45:28;;;;;;;4.10;2.40;;;18.90;57.00;19.70;101512.00;;;;5017292;28;20773;-51
2023/05/24 10:47:55;;;;;;;4.40;2.50;;;19.00;57.20;19.70;101507.00;;;;5016469;28;20227;-50